< < Back
Terminal Aerodrome Forecast


Current Version              Previous Versions:   1  2  3  4  5  6  7  8  9  

Terminal Aerodrome Forecast

300
FTUS44 KBMX 200500
TAFMGM
TAF
KMGM 200522Z 2006/2106 07009KT P6SM SCT060
     FM201100 04007KT P6SM BKN025
     FM201800 06012KT P6SM BKN040=

Latest METAR

026
SAUS80 KWBC 201300 RRC
MTRMGM
METAR KMGM 201253Z 05012KT 10SM OVC026 15/09 A3021 RMK AO2 SLP228
T01500089


USA.gov is the U.S. government's official web portal to all federal, state and local government web resources and services.